Charlotte — C6DH3 — position and weather

sailwx.info

Track history (hours):
 
Tides and Currents Weather Stations Pressure Air Temp Water Temp Dewpoint Dewpoint Depression Visibility Wind Speed Wind Dir Waves Ship Positions

Charlotte

Last reported at 2017-Dec-02 22:04 UTC. Time now 2017-Dec-13 07:21 UTC.
Position N 25°24' W 080°01'.
Warning: this ship's position is 10 days out of date.

Length 90 m; draft 3.5 m.

Type: Cargo ship. MMSI: 311000674.

Date/timePositionNaut miles runAvg speedWind from/ knotsBaromVisibWave heightAir tempDewpointWater temp
2017-Dec-02 22:04N 25°24' W 080°01'1 9.6
2017-Dec-02 22:00N 25°24' W 080°01'5 9.5
2017-Dec-02 21:30N 25°29' W 080°01'5 9.4
2017-Dec-02 21:01N 25°34' W 080°00'5 9.0
2017-Dec-02 20:31N 25°38' W 080°00'5 9.2
2017-Dec-02 20:00N 25°43' W 080°01'510.2
2017-Dec-02 19:31N 25°48' W 080°01'611.3
2017-Dec-02 19:01N 25°54' W 080°02'611.5
2017-Dec-02 18:30N 25°59' W 080°03'510.3
2017-Dec-02 18:00N 26°04' W 080°04'2 4.5
2017-Dec-02 17:30N 26°05' W 080°07'1 1.1
2017-Dec-02 16:56N 26°04' W 080°07'0 0.0
2017-Dec-02 16:26N 26°04' W 080°07'0 0.0
2017-Dec-02 15:56N 26°04' W 080°07'0 0.0
2017-Dec-02 15:26N 26°04' W 080°07'0 0.0
2017-Dec-02 14:56N 26°04' W 080°07'0 0.0
2017-Dec-02 14:26N 26°04' W 080°07'0 0.0
2017-Dec-02 13:55N 26°04' W 080°07'0 0.0
2017-Dec-02 13:25N 26°04' W 080°07'0 0.0
2017-Dec-02 12:55N 26°04' W 080°07'0 0.0
2017-Dec-02 12:28N 26°04' W 080°07'0 0.0
2017-Dec-02 11:58N 26°04' W 080°07'0 0.0
2017-Dec-02 11:28N 26°04' W 080°07'0 0.0
2017-Dec-02 10:58N 26°04' W 080°07'0 0.0
2017-Dec-02 10:28N 26°04' W 080°07'0 0.0
2017-Dec-02 09:58N 26°04' W 080°07'0 0.0
2017-Dec-02 09:28N 26°04' W 080°07'0 0.0
2017-Dec-02 08:58N 26°04' W 080°07'0 0.0
2017-Dec-02 08:28N 26°04' W 080°07'0 0.0
2017-Dec-02 07:58N 26°04' W 080°07'0 0.0
2017-Dec-02 07:28N 26°04' W 080°07'0 0.0
2017-Dec-02 06:58N 26°04' W 080°07'0 0.3
2017-Dec-02 06:30N 26°04' W 080°07'1 2.3
2017-Dec-02 05:58N 26°06' W 080°07'0 0.0
2017-Dec-02 05:28N 26°06' W 080°07'0 0.0
2017-Dec-02 04:49N 26°06' W 080°07'0 0.0
2017-Dec-02 04:19N 26°06' W 080°07'0 0.0
2017-Dec-02 03:49N 26°06' W 080°07'0 0.0
2017-Dec-02 03:19N 26°06' W 080°07'0 0.0
2017-Dec-02 02:52N 26°06' W 080°07'0 0.0
2017-Dec-02 02:22N 26°06' W 080°07'0 0.0
2017-Dec-02 01:52N 26°06' W 080°07'0 0.0
2017-Dec-02 01:22N 26°06' W 080°07'0 0.0
2017-Dec-02 00:52N 26°06' W 080°07'0 0.0
2017-Dec-02 00:19N 26°06' W 080°07'0 0.0
2017-Dec-01 23:52N 26°06' W 080°07'0 0.0
2017-Dec-01 23:22N 26°06' W 080°07'0 0.0
2017-Dec-01 22:52N 26°06' W 080°07'0 0.0
2017-Dec-01 22:25N 26°06' W 080°07'0 0.0
2017-Dec-01 21:55N 26°06' W 080°07'0 0.0
2017-Dec-01 21:25N 26°06' W 080°07'0 0.0
2017-Dec-01 20:55N 26°06' W 080°07'0 0.0
2017-Dec-01 20:25N 26°06' W 080°07'0 0.0
2017-Dec-01 19:55N 26°06' W 080°07'0 0.0
2017-Dec-01 19:25N 26°06' W 080°07'0 0.0
2017-Dec-01 18:55N 26°06' W 080°07'0 0.0
2017-Dec-01 18:25N 26°06' W 080°07'0 0.0
2017-Dec-01 17:55N 26°06' W 080°07'0 0.0
2017-Dec-01 17:28N 26°06' W 080°07'0 0.0
2017-Dec-01 16:58N 26°06' W 080°07'0 0.0
2017-Dec-01 16:28N 26°06' W 080°07'0 0.0
2017-Dec-01 15:58N 26°06' W 080°07'0 0.0
2017-Dec-01 15:28N 26°06' W 080°07'0 0.0
2017-Dec-01 14:58N 26°06' W 080°07'0 0.0
2017-Dec-01 14:28N 26°06' W 080°07'0 0.0
2017-Dec-01 13:58N 26°06' W 080°07'0 0.0
2017-Dec-01 13:28N 26°06' W 080°07'0 0.0
2017-Dec-01 12:58N 26°06' W 080°07'0 0.0
2017-Dec-01 12:28N 26°06' W 080°07'0 0.0
2017-Dec-01 12:01N 26°06' W 080°07'0 0.0
2017-Dec-01 11:31N 26°06' W 080°07'0 0.0
2017-Dec-01 11:00N 26°06' W 080°07'0 0.0
2017-Dec-01 10:30N 26°06' W 080°07'0 0.0
2017-Dec-01 10:00N 26°06' W 080°07'0 0.0
2017-Dec-01 09:30N 26°06' W 080°07'0 0.0
2017-Dec-01 09:00N 26°06' W 080°07'0 0.0
2017-Dec-01 08:30N 26°06' W 080°07'0 0.0
2017-Dec-01 08:00N 26°06' W 080°07'0 0.0
2017-Dec-01 07:30N 26°06' W 080°07'0 0.0
2017-Dec-01 07:00N 26°06' W 080°07'0 0.0
2017-Dec-01 06:30N 26°06' W 080°07'0 0.0
2017-Dec-01 06:00N 26°06' W 080°07'0 0.0
2017-Dec-01 05:30N 26°06' W 080°07'0 0.0
2017-Dec-01 05:00N 26°06' W 080°07'0 0.0
2017-Dec-01 04:30N 26°06' W 080°07'0 0.0
2017-Dec-01 04:00N 26°06' W 080°07'0 0.0
2017-Dec-01 03:30N 26°06' W 080°07'0 0.0
2017-Dec-01 03:00N 26°06' W 080°07'0 0.0
2017-Dec-01 02:30N 26°06' W 080°07'0 0.0
2017-Dec-01 02:00N 26°06' W 080°07'0 0.0
2017-Dec-01 01:21N 26°06' W 080°07'0 0.0
2017-Dec-01 00:51N 26°06' W 080°07'0 0.0
2017-Dec-01 00:21N 26°06' W 080°07'0 0.0
2017-Nov-30 23:39N 26°06' W 080°07'0 0.0
2017-Nov-30 23:24N 26°06' W 080°07'0 0.0
2017-Nov-30 22:54N 26°06' W 080°07'0 0.0
2017-Nov-30 22:24N 26°06' W 080°07'0 0.0
2017-Nov-30 21:54N 26°06' W 080°07'0 0.0
2017-Nov-30 21:24N 26°06' W 080°07'0 0.0
2017-Nov-30 20:54N 26°06' W 080°07'0 0.0
2017-Nov-30 20:24N 26°06' W 080°07'0 0.0
2017-Nov-30 19:51N 26°06' W 080°07'0 0.0
2017-Nov-30 19:24N 26°06' W 080°07'0 0.0
2017-Nov-30 18:57N 26°06' W 080°07'0 0.0
2017-Nov-30 18:27N 26°06' W 080°07'0 0.0
2017-Nov-30 17:54N 26°06' W 080°07'0 0.0
2017-Nov-30 17:24N 26°06' W 080°07'0 0.0
2017-Nov-30 16:57N 26°06' W 080°07'0 0.0
2017-Nov-30 16:27N 26°06' W 080°07'0 0.0
2017-Nov-30 15:57N 26°06' W 080°07'0 0.0
2017-Nov-30 15:24N 26°06' W 080°07'0 0.0
2017-Nov-30 14:57N 26°06' W 080°07'0 0.0
2017-Nov-30 14:24N 26°06' W 080°07'0 0.0
2017-Nov-30 14:00N 26°06' W 080°07'0 0.0
2017-Nov-30 13:30N 26°06' W 080°07'0 0.0
2017-Nov-30 13:00N 26°06' W 080°07'0 0.0
2017-Nov-30 12:30N 26°06' W 080°07'0 0.0
2017-Nov-30 11:57N 26°06' W 080°07'0 0.0
2017-Nov-30 11:30N 26°06' W 080°07'0 0.0
2017-Nov-30 11:00N 26°06' W 080°07'0 0.0
2017-Nov-30 10:30N 26°06' W 080°07'0 0.0
2017-Nov-30 10:00N 26°06' W 080°07'0 0.0
2017-Nov-30 09:27N 26°06' W 080°07'0 0.0
2017-Nov-30 09:00N 26°06' W 080°07'0 0.0
2017-Nov-30 08:30N 26°06' W 080°07'0 0.0
2017-Nov-30 07:57N 26°06' W 080°07'0 0.0
2017-Nov-30 07:30N 26°06' W 080°07'0 0.0
2017-Nov-30 07:00N 26°06' W 080°07'0 0.0
2017-Nov-30 06:18N 26°06' W 080°07'0 0.0
2017-Nov-30 06:00N 26°06' W 080°07'0 0.0
2017-Nov-30 05:30N 26°06' W 080°07'0 0.0
2017-Nov-30 05:00N 26°06' W 080°07'0 0.0
2017-Nov-30 04:30N 26°06' W 080°07'0 0.0
2017-Nov-30 03:48N 26°06' W 080°07'0 0.0
2017-Nov-30 03:30N 26°06' W 080°07'0 0.0
2017-Nov-30 02:48N 26°06' W 080°07'0 0.0
2017-Nov-30 02:21N 26°06' W 080°07'0 0.0
2017-Nov-30 01:51N 26°06' W 080°07'0 0.0
2017-Nov-30 01:21N 26°06' W 080°07'0 0.0
2017-Nov-30 00:48N 26°06' W 080°07'0 0.0
2017-Nov-30 00:24N 26°06' W 080°07'0 0.0
2017-Nov-29 23:51N 26°06' W 080°07'0 0.0
2017-Nov-29 23:24N 26°06' W 080°07'0 0.0
2017-Nov-29 22:54N 26°06' W 080°07'0 0.0
2017-Nov-29 22:24N 26°06' W 080°07'0 0.0
2017-Nov-29 21:54N 26°06' W 080°07'0 0.0
2017-Nov-29 21:24N 26°06' W 080°07'0 0.0
2017-Nov-29 20:54N 26°06' W 080°07'0 0.0
2017-Nov-29 20:24N 26°06' W 080°07'0 0.0
2017-Nov-29 19:54N 26°06' W 080°07'0 0.0
2017-Nov-29 19:26N 26°06' W 080°07'0 0.0
2017-Nov-29 18:56N 26°06' W 080°07'0 0.0
2017-Nov-29 18:26N 26°06' W 080°07'0 0.0
2017-Nov-29 17:56N 26°06' W 080°07'0 0.0
2017-Nov-29 17:26N 26°06' W 080°07'0 0.0
2017-Nov-29 16:56N 26°06' W 080°07'0 0.0
2017-Nov-29 16:26N 26°06' W 080°07'0 0.0
2017-Nov-29 16:00N 26°06' W 080°07'0 0.0
2017-Nov-29 15:30N 26°06' W 080°07'0 0.0
2017-Nov-29 15:00N 26°06' W 080°07'0 0.0
2017-Nov-29 14:30N 26°06' W 080°07'0 0.0
2017-Nov-29 14:00N 26°06' W 080°07'0 0.0
2017-Nov-29 13:30N 26°06' W 080°07'0 0.0
2017-Nov-29 13:00N 26°06' W 080°07'1 1.1
2017-Nov-29 12:30N 26°05' W 080°07'1 1.6
2017-Nov-29 12:00N 26°04' W 080°07'0 0.0
2017-Nov-29 11:30N 26°04' W 080°07'0 0.0
2017-Nov-29 11:00N 26°04' W 080°07'0 0.0
2017-Nov-29 10:30N 26°04' W 080°07'0 0.0
2017-Nov-29 10:00N 26°04' W 080°07'0 0.0
2017-Nov-29 09:30N 26°04' W 080°07'0 0.0
2017-Nov-29 09:00N 26°04' W 080°07'0 0.0
2017-Nov-29 08:30N 26°04' W 080°07'0 0.0
2017-Nov-29 08:00N 26°04' W 080°07'0 0.1
2017-Nov-29 07:30N 26°04' W 080°07'2 4.2
2017-Nov-29 07:00N 26°06' W 080°05'3 5.6
2017-Nov-29 06:30N 26°04' W 080°03'510.0
2017-Nov-29 06:00N 25°59' W 080°02'5 9.8
2017-Nov-29 05:30N 25°54' W 080°02'510.2
2017-Nov-29 05:00N 25°49' W 080°01'5 9.9
2017-Nov-29 04:30N 25°44' W 080°01'510.1
2017-Nov-29 04:00N 25°39' W 080°01'510.3
2017-Nov-29 03:30N 25°34' W 080°01'510.9
2017-Nov-29 03:00N 25°28' W 080°00'510.9
2017-Nov-29 02:30N 25°23' W 080°00'  
Track history (hours):
 
Tides and Currents Weather Stations Pressure Air Temp Water Temp Dewpoint Dewpoint Depression Visibility Wind Speed Wind Dir Waves Ship Positions

Charlotte

Last reported at 2017-Dec-02 22:04 UTC. Time now 2017-Dec-13 07:21 UTC.
Position N 25°24' W 080°01'.
Warning: this ship's position is 10 days out of date.

Length 90 m; draft 3.5 m.

Type: Cargo ship. MMSI: 311000674.

Date/timePositionNaut miles runAvg speedWind from/ knotsBaromVisibWave heightAir tempDewpointWater temp
2017-Dec-02 22:04N 25°24' W 080°01'1 9.6
2017-Dec-02 22:00N 25°24' W 080°01'5 9.5
2017-Dec-02 21:30N 25°29' W 080°01'5 9.4
2017-Dec-02 21:01N 25°34' W 080°00'5 9.0
2017-Dec-02 20:31N 25°38' W 080°00'5 9.2
2017-Dec-02 20:00N 25°43' W 080°01'510.2
2017-Dec-02 19:31N 25°48' W 080°01'611.3
2017-Dec-02 19:01N 25°54' W 080°02'611.5
2017-Dec-02 18:30N 25°59' W 080°03'510.3
2017-Dec-02 18:00N 26°04' W 080°04'2 4.5
2017-Dec-02 17:30N 26°05' W 080°07'1 1.1
2017-Dec-02 16:56N 26°04' W 080°07'0 0.0
2017-Dec-02 16:26N 26°04' W 080°07'0 0.0
2017-Dec-02 15:56N 26°04' W 080°07'0 0.0
2017-Dec-02 15:26N 26°04' W 080°07'0 0.0
2017-Dec-02 14:56N 26°04' W 080°07'0 0.0
2017-Dec-02 14:26N 26°04' W 080°07'0 0.0
2017-Dec-02 13:55N 26°04' W 080°07'0 0.0
2017-Dec-02 13:25N 26°04' W 080°07'0 0.0
2017-Dec-02 12:55N 26°04' W 080°07'0 0.0
2017-Dec-02 12:28N 26°04' W 080°07'0 0.0
2017-Dec-02 11:58N 26°04' W 080°07'0 0.0
2017-Dec-02 11:28N 26°04' W 080°07'0 0.0
2017-Dec-02 10:58N 26°04' W 080°07'0 0.0
2017-Dec-02 10:28N 26°04' W 080°07'0 0.0
2017-Dec-02 09:58N 26°04' W 080°07'0 0.0
2017-Dec-02 09:28N 26°04' W 080°07'0 0.0
2017-Dec-02 08:58N 26°04' W 080°07'0 0.0
2017-Dec-02 08:28N 26°04' W 080°07'0 0.0
2017-Dec-02 07:58N 26°04' W 080°07'0 0.0
2017-Dec-02 07:28N 26°04' W 080°07'0 0.0
2017-Dec-02 06:58N 26°04' W 080°07'0 0.3
2017-Dec-02 06:30N 26°04' W 080°07'1 2.3
2017-Dec-02 05:58N 26°06' W 080°07'0 0.0
2017-Dec-02 05:28N 26°06' W 080°07'0 0.0
2017-Dec-02 04:49N 26°06' W 080°07'0 0.0
2017-Dec-02 04:19N 26°06' W 080°07'0 0.0
2017-Dec-02 03:49N 26°06' W 080°07'0 0.0
2017-Dec-02 03:19N 26°06' W 080°07'0 0.0
2017-Dec-02 02:52N 26°06' W 080°07'0 0.0
2017-Dec-02 02:22N 26°06' W 080°07'0 0.0
2017-Dec-02 01:52N 26°06' W 080°07'0 0.0
2017-Dec-02 01:22N 26°06' W 080°07'0 0.0
2017-Dec-02 00:52N 26°06' W 080°07'0 0.0
2017-Dec-02 00:19N 26°06' W 080°07'0 0.0
2017-Dec-01 23:52N 26°06' W 080°07'0 0.0
2017-Dec-01 23:22N 26°06' W 080°07'0 0.0
2017-Dec-01 22:52N 26°06' W 080°07'0 0.0
2017-Dec-01 22:25N 26°06' W 080°07'0 0.0
2017-Dec-01 21:55N 26°06' W 080°07'0 0.0
2017-Dec-01 21:25N 26°06' W 080°07'0 0.0
2017-Dec-01 20:55N 26°06' W 080°07'0 0.0
2017-Dec-01 20:25N 26°06' W 080°07'0 0.0
2017-Dec-01 19:55N 26°06' W 080°07'0 0.0
2017-Dec-01 19:25N 26°06' W 080°07'0 0.0
2017-Dec-01 18:55N 26°06' W 080°07'0 0.0
2017-Dec-01 18:25N 26°06' W 080°07'0 0.0
2017-Dec-01 17:55N 26°06' W 080°07'0 0.0
2017-Dec-01 17:28N 26°06' W 080°07'0 0.0
2017-Dec-01 16:58N 26°06' W 080°07'0 0.0
2017-Dec-01 16:28N 26°06' W 080°07'0 0.0
2017-Dec-01 15:58N 26°06' W 080°07'0 0.0
2017-Dec-01 15:28N 26°06' W 080°07'0 0.0
2017-Dec-01 14:58N 26°06' W 080°07'0 0.0
2017-Dec-01 14:28N 26°06' W 080°07'0 0.0
2017-Dec-01 13:58N 26°06' W 080°07'0 0.0
2017-Dec-01 13:28N 26°06' W 080°07'0 0.0
2017-Dec-01 12:58N 26°06' W 080°07'0 0.0
2017-Dec-01 12:28N 26°06' W 080°07'0 0.0
2017-Dec-01 12:01N 26°06' W 080°07'0 0.0
2017-Dec-01 11:31N 26°06' W 080°07'0 0.0
2017-Dec-01 11:00N 26°06' W 080°07'0 0.0
2017-Dec-01 10:30N 26°06' W 080°07'0 0.0
2017-Dec-01 10:00N 26°06' W 080°07'0 0.0
2017-Dec-01 09:30N 26°06' W 080°07'0 0.0
2017-Dec-01 09:00N 26°06' W 080°07'0 0.0
2017-Dec-01 08:30N 26°06' W 080°07'0 0.0
2017-Dec-01 08:00N 26°06' W 080°07'0 0.0
2017-Dec-01 07:30N 26°06' W 080°07'0 0.0
2017-Dec-01 07:00N 26°06' W 080°07'0 0.0
2017-Dec-01 06:30N 26°06' W 080°07'0 0.0
2017-Dec-01 06:00N 26°06' W 080°07'0 0.0
2017-Dec-01 05:30N 26°06' W 080°07'0 0.0
2017-Dec-01 05:00N 26°06' W 080°07'0 0.0
2017-Dec-01 04:30N 26°06' W 080°07'0 0.0
2017-Dec-01 04:00N 26°06' W 080°07'0 0.0
2017-Dec-01 03:30N 26°06' W 080°07'0 0.0
2017-Dec-01 03:00N 26°06' W 080°07'0 0.0
2017-Dec-01 02:30N 26°06' W 080°07'0 0.0
2017-Dec-01 02:00N 26°06' W 080°07'0 0.0
2017-Dec-01 01:21N 26°06' W 080°07'0 0.0
2017-Dec-01 00:51N 26°06' W 080°07'0 0.0
2017-Dec-01 00:21N 26°06' W 080°07'0 0.0
2017-Nov-30 23:39N 26°06' W 080°07'0 0.0
2017-Nov-30 23:24N 26°06' W 080°07'0 0.0
2017-Nov-30 22:54N 26°06' W 080°07'0 0.0
2017-Nov-30 22:24N 26°06' W 080°07'0 0.0
2017-Nov-30 21:54N 26°06' W 080°07'0 0.0
2017-Nov-30 21:24N 26°06' W 080°07'0 0.0
2017-Nov-30 20:54N 26°06' W 080°07'0 0.0
2017-Nov-30 20:24N 26°06' W 080°07'0 0.0
2017-Nov-30 19:51N 26°06' W 080°07'0 0.0
2017-Nov-30 19:24N 26°06' W 080°07'0 0.0
2017-Nov-30 18:57N 26°06' W 080°07'0 0.0
2017-Nov-30 18:27N 26°06' W 080°07'0 0.0
2017-Nov-30 17:54N 26°06' W 080°07'0 0.0
2017-Nov-30 17:24N 26°06' W 080°07'0 0.0
2017-Nov-30 16:57N 26°06' W 080°07'0 0.0
2017-Nov-30 16:27N 26°06' W 080°07'0 0.0
2017-Nov-30 15:57N 26°06' W 080°07'0 0.0
2017-Nov-30 15:24N 26°06' W 080°07'0 0.0
2017-Nov-30 14:57N 26°06' W 080°07'0 0.0
2017-Nov-30 14:24N 26°06' W 080°07'0 0.0
2017-Nov-30 14:00N 26°06' W 080°07'0 0.0
2017-Nov-30 13:30N 26°06' W 080°07'0 0.0
2017-Nov-30 13:00N 26°06' W 080°07'0 0.0
2017-Nov-30 12:30N 26°06' W 080°07'0 0.0
2017-Nov-30 11:57N 26°06' W 080°07'0 0.0
2017-Nov-30 11:30N 26°06' W 080°07'0 0.0
2017-Nov-30 11:00N 26°06' W 080°07'0 0.0
2017-Nov-30 10:30N 26°06' W 080°07'0 0.0
2017-Nov-30 10:00N 26°06' W 080°07'0 0.0
2017-Nov-30 09:27N 26°06' W 080°07'0 0.0
2017-Nov-30 09:00N 26°06' W 080°07'0 0.0
2017-Nov-30 08:30N 26°06' W 080°07'0 0.0
2017-Nov-30 07:57N 26°06' W 080°07'0 0.0
2017-Nov-30 07:30N 26°06' W 080°07'0 0.0
2017-Nov-30 07:00N 26°06' W 080°07'0 0.0
2017-Nov-30 06:18N 26°06' W 080°07'0 0.0
2017-Nov-30 06:00N 26°06' W 080°07'0 0.0
2017-Nov-30 05:30N 26°06' W 080°07'0 0.0
2017-Nov-30 05:00N 26°06' W 080°07'0 0.0
2017-Nov-30 04:30N 26°06' W 080°07'0 0.0
2017-Nov-30 03:48N 26°06' W 080°07'0 0.0
2017-Nov-30 03:30N 26°06' W 080°07'0 0.0
2017-Nov-30 02:48N 26°06' W 080°07'0 0.0
2017-Nov-30 02:21N 26°06' W 080°07'0 0.0
2017-Nov-30 01:51N 26°06' W 080°07'0 0.0
2017-Nov-30 01:21N 26°06' W 080°07'0 0.0
2017-Nov-30 00:48N 26°06' W 080°07'0 0.0
2017-Nov-30 00:24N 26°06' W 080°07'0 0.0
2017-Nov-29 23:51N 26°06' W 080°07'0 0.0
2017-Nov-29 23:24N 26°06' W 080°07'0 0.0
2017-Nov-29 22:54N 26°06' W 080°07'0 0.0
2017-Nov-29 22:24N 26°06' W 080°07'0 0.0
2017-Nov-29 21:54N 26°06' W 080°07'0 0.0
2017-Nov-29 21:24N 26°06' W 080°07'0 0.0
2017-Nov-29 20:54N 26°06' W 080°07'0 0.0
2017-Nov-29 20:24N 26°06' W 080°07'0 0.0
2017-Nov-29 19:54N 26°06' W 080°07'0 0.0
2017-Nov-29 19:26N 26°06' W 080°07'0 0.0
2017-Nov-29 18:56N 26°06' W 080°07'0 0.0
2017-Nov-29 18:26N 26°06' W 080°07'0 0.0
2017-Nov-29 17:56N 26°06' W 080°07'0 0.0
2017-Nov-29 17:26N 26°06' W 080°07'0 0.0
2017-Nov-29 16:56N 26°06' W 080°07'0 0.0
2017-Nov-29 16:26N 26°06' W 080°07'0 0.0
2017-Nov-29 16:00N 26°06' W 080°07'0 0.0
2017-Nov-29 15:30N 26°06' W 080°07'0 0.0
2017-Nov-29 15:00N 26°06' W 080°07'0 0.0
2017-Nov-29 14:30N 26°06' W 080°07'0 0.0
2017-Nov-29 14:00N 26°06' W 080°07'0 0.0
2017-Nov-29 13:30N 26°06' W 080°07'0 0.0
2017-Nov-29 13:00N 26°06' W 080°07'1 1.1
2017-Nov-29 12:30N 26°05' W 080°07'1 1.6
2017-Nov-29 12:00N 26°04' W 080°07'0 0.0
2017-Nov-29 11:30N 26°04' W 080°07'0 0.0
2017-Nov-29 11:00N 26°04' W 080°07'0 0.0
2017-Nov-29 10:30N 26°04' W 080°07'0 0.0
2017-Nov-29 10:00N 26°04' W 080°07'0 0.0
2017-Nov-29 09:30N 26°04' W 080°07'0 0.0
2017-Nov-29 09:00N 26°04' W 080°07'0 0.0
2017-Nov-29 08:30N 26°04' W 080°07'0 0.0
2017-Nov-29 08:00N 26°04' W 080°07'0 0.1
2017-Nov-29 07:30N 26°04' W 080°07'2 4.2
2017-Nov-29 07:00N 26°06' W 080°05'3 5.6
2017-Nov-29 06:30N 26°04' W 080°03'510.0
2017-Nov-29 06:00N 25°59' W 080°02'5 9.8
2017-Nov-29 05:30N 25°54' W 080°02'510.2
2017-Nov-29 05:00N 25°49' W 080°01'5 9.9
2017-Nov-29 04:30N 25°44' W 080°01'510.1
2017-Nov-29 04:00N 25°39' W 080°01'510.3
2017-Nov-29 03:30N 25°34' W 080°01'510.9
2017-Nov-29 03:00N 25°28' W 080°00'510.9
2017-Nov-29 02:30N 25°23' W 080°00'  

Dump ship's entire track history